sensor_id;sensor_type;location;lat;lon;timestamp;temperature;humidity
79760;DHT22;70512;42.122;24.732;2024-01-25T00:00:43;4.70;79.00
79760;DHT22;70512;42.122;24.732;2024-01-25T00:03:11;4.80;78.50
79760;DHT22;70512;42.122;24.732;2024-01-25T00:05:39;4.70;77.90
79760;DHT22;70512;42.122;24.732;2024-01-25T00:08:06;4.90;77.70
79760;DHT22;70512;42.122;24.732;2024-01-25T00:10:34;4.90;77.10
79760;DHT22;70512;42.122;24.732;2024-01-25T00:13:02;4.80;76.70
79760;DHT22;70512;42.122;24.732;2024-01-25T00:15:29;4.60;77.40
79760;DHT22;70512;42.122;24.732;2024-01-25T00:17:57;4.50;78.30
79760;DHT22;70512;42.122;24.732;2024-01-25T00:20:25;4.30;79.50
79760;DHT22;70512;42.122;24.732;2024-01-25T00:22:52;4.20;79.50
79760;DHT22;70512;42.122;24.732;2024-01-25T00:25:20;4.20;80.00
79760;DHT22;70512;42.122;24.732;2024-01-25T00:27:47;4.10;80.70
79760;DHT22;70512;42.122;24.732;2024-01-25T00:30:15;4.00;81.10
79760;DHT22;70512;42.122;24.732;2024-01-25T00:32:43;4.00;81.70
79760;DHT22;70512;42.122;24.732;2024-01-25T00:35:11;3.90;82.10
79760;DHT22;70512;42.122;24.732;2024-01-25T00:37:41;3.70;82.90
79760;DHT22;70512;42.122;24.732;2024-01-25T00:40:09;3.70;82.80
79760;DHT22;70512;42.122;24.732;2024-01-25T00:42:43;3.70;83.00
79760;DHT22;70512;42.122;24.732;2024-01-25T00:45:12;3.70;83.10
79760;DHT22;70512;42.122;24.732;2024-01-25T00:47:40;3.60;82.80
79760;DHT22;70512;42.122;24.732;2024-01-25T00:50:08;3.60;82.80
79760;DHT22;70512;42.122;24.732;2024-01-25T00:52:36;3.60;83.00
79760;DHT22;70512;42.122;24.732;2024-01-25T00:55:04;3.60;83.30
79760;DHT22;70512;42.122;24.732;2024-01-25T00:57:37;3.50;83.00
79760;DHT22;70512;42.122;24.732;2024-01-25T01:00:05;3.60;82.80
79760;DHT22;70512;42.122;24.732;2024-01-25T01:02:39;3.60;82.80
79760;DHT22;70512;42.122;24.732;2024-01-25T01:05:06;3.60;83.20
79760;DHT22;70512;42.122;24.732;2024-01-25T01:07:34;3.70;82.80
79760;DHT22;70512;42.122;24.732;2024-01-25T01:10:02;4.00;81.60
79760;DHT22;70512;42.122;24.732;2024-01-25T01:12:31;4.30;80.70
79760;DHT22;70512;42.122;24.732;2024-01-25T01:14:58;4.60;79.40
79760;DHT22;70512;42.122;24.732;2024-01-25T01:17:26;4.80;78.60
79760;DHT22;70512;42.122;24.732;2024-01-25T01:19:54;4.90;78.20
79760;DHT22;70512;42.122;24.732;2024-01-25T01:22:21;5.10;77.80
79760;DHT22;70512;42.122;24.732;2024-01-25T01:24:49;5.30;77.10
79760;DHT22;70512;42.122;24.732;2024-01-25T01:27:17;5.80;75.60
79760;DHT22;70512;42.122;24.732;2024-01-25T01:29:46;6.20;74.00
79760;DHT22;70512;42.122;24.732;2024-01-25T01:32:14;6.70;71.50
79760;DHT22;70512;42.122;24.732;2024-01-25T01:34:41;7.10;69.10
79760;DHT22;70512;42.122;24.732;2024-01-25T01:37:09;7.20;67.70
79760;DHT22;70512;42.122;24.732;2024-01-25T01:39:37;7.30;66.60
79760;DHT22;70512;42.122;24.732;2024-01-25T01:42:04;7.50;65.00
79760;DHT22;70512;42.122;24.732;2024-01-25T01:44:32;7.60;63.50
79760;DHT22;70512;42.122;24.732;2024-01-25T01:47:00;7.80;61.80
79760;DHT22;70512;42.122;24.732;2024-01-25T01:49:27;7.80;61.20
79760;DHT22;70512;42.122;24.732;2024-01-25T01:51:55;7.80;61.20
79760;DHT22;70512;42.122;24.732;2024-01-25T01:54:23;7.80;61.30
79760;DHT22;70512;42.122;24.732;2024-01-25T01:56:52;7.80;60.90
79760;DHT22;70512;42.122;24.732;2024-01-25T01:59:20;7.90;60.80
79760;DHT22;70512;42.122;24.732;2024-01-25T02:01:50;8.00;60.40
79760;DHT22;70512;42.122;24.732;2024-01-25T02:04:17;8.00;60.60
79760;DHT22;70512;42.122;24.732;2024-01-25T02:06:45;8.00;60.90
79760;DHT22;70512;42.122;24.732;2024-01-25T02:09:13;7.90;61.00
79760;DHT22;70512;42.122;24.732;2024-01-25T02:11:41;7.90;61.10
79760;DHT22;70512;42.122;24.732;2024-01-25T02:14:08;7.90;61.00
79760;DHT22;70512;42.122;24.732;2024-01-25T02:16:38;7.80;61.50
79760;DHT22;70512;42.122;24.732;2024-01-25T02:19:06;7.80;61.70
79760;DHT22;70512;42.122;24.732;2024-01-25T02:21:33;7.80;62.00
79760;DHT22;70512;42.122;24.732;2024-01-25T02:24:01;7.80;61.80
79760;DHT22;70512;42.122;24.732;2024-01-25T02:26:28;8.10;61.40
79760;DHT22;70512;42.122;24.732;2024-01-25T02:28:56;8.10;61.20
79760;DHT22;70512;42.122;24.732;2024-01-25T02:31:24;8.30;60.80
79760;DHT22;70512;42.122;24.732;2024-01-25T02:33:51;8.50;60.20
79760;DHT22;70512;42.122;24.732;2024-01-25T02:36:22;8.60;60.50
79760;DHT22;70512;42.122;24.732;2024-01-25T02:38:49;8.60;61.00
79760;DHT22;70512;42.122;24.732;2024-01-25T02:41:17;8.60;61.30
79760;DHT22;70512;42.122;24.732;2024-01-25T02:43:45;8.70;61.40
79760;DHT22;70512;42.122;24.732;2024-01-25T02:46:12;8.80;61.50
79760;DHT22;70512;42.122;24.732;2024-01-25T02:48:40;8.90;61.60
79760;DHT22;70512;42.122;24.732;2024-01-25T02:51:08;9.00;61.70
79760;DHT22;70512;42.122;24.732;2024-01-25T02:53:35;9.10;61.70
79760;DHT22;70512;42.122;24.732;2024-01-25T02:56:03;9.10;61.70
79760;DHT22;70512;42.122;24.732;2024-01-25T02:58:31;9.20;61.70
79760;DHT22;70512;42.122;24.732;2024-01-25T03:00:58;9.20;62.60
79760;DHT22;70512;42.122;24.732;2024-01-25T03:03:26;9.30;62.00
79760;DHT22;70512;42.122;24.732;2024-01-25T03:05:54;9.40;62.20
79760;DHT22;70512;42.122;24.732;2024-01-25T03:08:21;9.40;62.40
79760;DHT22;70512;42.122;24.732;2024-01-25T03:10:49;9.40;62.70
79760;DHT22;70512;42.122;24.732;2024-01-25T03:13:17;9.60;62.70
79760;DHT22;70512;42.122;24.732;2024-01-25T03:15:45;9.70;62.70
79760;DHT22;70512;42.122;24.732;2024-01-25T03:18:12;9.70;62.90
79760;DHT22;70512;42.122;24.732;2024-01-25T03:20:40;9.70;63.40
79760;DHT22;70512;42.122;24.732;2024-01-25T03:23:08;9.80;64.10
79760;DHT22;70512;42.122;24.732;2024-01-25T03:25:35;9.90;63.90
79760;DHT22;70512;42.122;24.732;2024-01-25T03:28:03;10.00;63.40
79760;DHT22;70512;42.122;24.732;2024-01-25T03:30:33;9.90;63.60
79760;DHT22;70512;42.122;24.732;2024-01-25T03:33:00;9.90;64.10
79760;DHT22;70512;42.122;24.732;2024-01-25T03:35:28;9.80;63.90
79760;DHT22;70512;42.122;24.732;2024-01-25T03:37:55;9.60;64.10
79760;DHT22;70512;42.122;24.732;2024-01-25T03:40:23;9.60;64.40
79760;DHT22;70512;42.122;24.732;2024-01-25T03:42:51;9.50;64.80
79760;DHT22;70512;42.122;24.732;2024-01-25T03:45:18;9.40;64.80
79760;DHT22;70512;42.122;24.732;2024-01-25T03:47:46;9.20;64.10
79760;DHT22;70512;42.122;24.732;2024-01-25T03:50:14;9.10;63.70
79760;DHT22;70512;42.122;24.732;2024-01-25T03:52:42;9.10;63.90
79760;DHT22;70512;42.122;24.732;2024-01-25T03:55:10;9.00;63.80
79760;DHT22;70512;42.122;24.732;2024-01-25T03:57:37;9.00;63.80
79760;DHT22;70512;42.122;24.732;2024-01-25T04:00:07;9.00;64.00
79760;DHT22;70512;42.122;24.732;2024-01-25T04:02:35;9.00;63.90
79760;DHT22;70512;42.122;24.732;2024-01-25T04:05:03;9.10;64.10
79760;DHT22;70512;42.122;24.732;2024-01-25T04:07:31;9.20;64.00
79760;DHT22;70512;42.122;24.732;2024-01-25T04:09:59;9.30;64.10
79760;DHT22;70512;42.122;24.732;2024-01-25T04:12:26;9.50;64.00
79760;DHT22;70512;42.122;24.732;2024-01-25T04:14:54;9.90;63.00
79760;DHT22;70512;42.122;24.732;2024-01-25T04:17:22;10.30;61.60
79760;DHT22;70512;42.122;24.732;2024-01-25T04:19:49;10.40;60.80
79760;DHT22;70512;42.122;24.732;2024-01-25T04:22:17;10.50;60.10
79760;DHT22;70512;42.122;24.732;2024-01-25T04:24:45;10.60;59.80
79760;DHT22;70512;42.122;24.732;2024-01-25T04:27:14;10.60;59.50
79760;DHT22;70512;42.122;24.732;2024-01-25T04:29:42;10.50;59.60
79760;DHT22;70512;42.122;24.732;2024-01-25T04:32:10;10.60;59.70
79760;DHT22;70512;42.122;24.732;2024-01-25T04:34:39;10.60;59.60
79760;DHT22;70512;42.122;24.732;2024-01-25T04:37:07;10.60;60.70
79760;DHT22;70512;42.122;24.732;2024-01-25T04:39:34;10.60;60.10
79760;DHT22;70512;42.122;24.732;2024-01-25T04:42:02;10.70;60.40
79760;DHT22;70512;42.122;24.732;2024-01-25T04:44:30;10.60;60.60
79760;DHT22;70512;42.122;24.732;2024-01-25T04:46:57;10.70;60.80
79760;DHT22;70512;42.122;24.732;2024-01-25T04:49:25;10.50;61.10
79760;DHT22;70512;42.122;24.732;2024-01-25T04:51:53;10.40;61.40
79760;DHT22;70512;42.122;24.732;2024-01-25T04:54:20;10.40;62.30
79760;DHT22;70512;42.122;24.732;2024-01-25T04:56:48;10.30;62.40
79760;DHT22;70512;42.122;24.732;2024-01-25T04:59:16;10.30;62.90
79760;DHT22;70512;42.122;24.732;2024-01-25T05:01:43;10.30;63.10
79760;DHT22;70512;42.122;24.732;2024-01-25T05:04:11;10.20;63.40
79760;DHT22;70512;42.122;24.732;2024-01-25T05:06:38;10.20;63.70
79760;DHT22;70512;42.122;24.732;2024-01-25T05:09:06;10.10;64.00
79760;DHT22;70512;42.122;24.732;2024-01-25T05:11:39;10.10;64.30
79760;DHT22;70512;42.122;24.732;2024-01-25T05:14:07;10.20;64.90
79760;DHT22;70512;42.122;24.732;2024-01-25T05:16:35;10.30;64.30
79760;DHT22;70512;42.122;24.732;2024-01-25T05:19:02;10.30;64.20
79760;DHT22;70512;42.122;24.732;2024-01-25T05:21:30;10.30;64.60
79760;DHT22;70512;42.122;24.732;2024-01-25T05:23:58;10.30;64.60
79760;DHT22;70512;42.122;24.732;2024-01-25T05:26:26;10.30;64.90
79760;DHT22;70512;42.122;24.732;2024-01-25T05:28:54;10.30;65.00
79760;DHT22;70512;42.122;24.732;2024-01-25T05:31:22;10.40;64.70
79760;DHT22;70512;42.122;24.732;2024-01-25T05:33:49;10.50;64.50
79760;DHT22;70512;42.122;24.732;2024-01-25T05:36:17;10.60;64.40
79760;DHT22;70512;42.122;24.732;2024-01-25T05:38:45;10.60;64.60
79760;DHT22;70512;42.122;24.732;2024-01-25T05:41:12;10.70;65.20
79760;DHT22;70512;42.122;24.732;2024-01-25T05:43:40;10.70;64.60
79760;DHT22;70512;42.122;24.732;2024-01-25T05:46:08;10.80;64.40
79760;DHT22;70512;42.122;24.732;2024-01-25T05:48:36;10.80;64.40
79760;DHT22;70512;42.122;24.732;2024-01-25T05:51:04;10.90;64.20
79760;DHT22;70512;42.122;24.732;2024-01-25T05:53:31;10.80;64.60
79760;DHT22;70512;42.122;24.732;2024-01-25T05:55:59;10.90;64.40
79760;DHT22;70512;42.122;24.732;2024-01-25T05:58:27;10.90;64.40
79760;DHT22;70512;42.122;24.732;2024-01-25T06:00:54;10.80;64.40
79760;DHT22;70512;42.122;24.732;2024-01-25T06:03:22;10.90;64.30
79760;DHT22;70512;42.122;24.732;2024-01-25T06:05:50;10.90;64.60
79760;DHT22;70512;42.122;24.732;2024-01-25T06:08:17;10.80;64.60
79760;DHT22;70512;42.122;24.732;2024-01-25T06:10:45;10.80;65.20
79760;DHT22;70512;42.122;24.732;2024-01-25T06:13:12;10.80;65.20
79760;DHT22;70512;42.122;24.732;2024-01-25T06:15:41;10.70;65.30
79760;DHT22;70512;42.122;24.732;2024-01-25T06:18:09;10.70;65.80
79760;DHT22;70512;42.122;24.732;2024-01-25T06:20:36;10.60;66.30
79760;DHT22;70512;42.122;24.732;2024-01-25T06:23:04;10.50;66.50
79760;DHT22;70512;42.122;24.732;2024-01-25T06:25:32;10.50;66.90
79760;DHT22;70512;42.122;24.732;2024-01-25T06:28:01;10.40;67.30
79760;DHT22;70512;42.122;24.732;2024-01-25T06:30:30;10.40;67.40
79760;DHT22;70512;42.122;24.732;2024-01-25T06:32:58;10.40;67.40
79760;DHT22;70512;42.122;24.732;2024-01-25T06:35:25;10.40;67.80
79760;DHT22;70512;42.122;24.732;2024-01-25T06:37:53;10.40;67.60
79760;DHT22;70512;42.122;24.732;2024-01-25T06:40:20;10.40;67.40
79760;DHT22;70512;42.122;24.732;2024-01-25T06:42:48;10.50;67.60
79760;DHT22;70512;42.122;24.732;2024-01-25T06:45:16;10.40;66.70
79760;DHT22;70512;42.122;24.732;2024-01-25T06:47:44;10.50;66.50
79760;DHT22;70512;42.122;24.732;2024-01-25T06:50:11;10.80;64.10
79760;DHT22;70512;42.122;24.732;2024-01-25T06:52:39;11.70;60.20
79760;DHT22;70512;42.122;24.732;2024-01-25T06:55:07;11.90;58.40
79760;DHT22;70512;42.122;24.732;2024-01-25T06:57:35;12.10;57.70
79760;DHT22;70512;42.122;24.732;2024-01-25T07:00:03;12.70;55.20
79760;DHT22;70512;42.122;24.732;2024-01-25T07:02:31;12.40;55.30
79760;DHT22;70512;42.122;24.732;2024-01-25T07:04:59;12.60;55.30
79760;DHT22;70512;42.122;24.732;2024-01-25T07:07:28;13.60;52.20
79760;DHT22;70512;42.122;24.732;2024-01-25T07:09:56;13.70;51.20
79760;DHT22;70512;42.122;24.732;2024-01-25T07:12:23;13.00;53.10
79760;DHT22;70512;42.122;24.732;2024-01-25T07:14:51;12.30;55.90
79760;DHT22;70512;42.122;24.732;2024-01-25T07:17:19;11.80;57.20
79760;DHT22;70512;42.122;24.732;2024-01-25T07:19:46;11.70;58.10
79760;DHT22;70512;42.122;24.732;2024-01-25T07:22:14;11.70;58.30
79760;DHT22;70512;42.122;24.732;2024-01-25T07:24:43;11.90;57.70
79760;DHT22;70512;42.122;24.732;2024-01-25T07:27:11;11.90;58.30
79760;DHT22;70512;42.122;24.732;2024-01-25T07:29:39;11.90;58.40
79760;DHT22;70512;42.122;24.732;2024-01-25T07:32:06;12.00;58.30
79760;DHT22;70512;42.122;24.732;2024-01-25T07:34:34;11.90;57.90
79760;DHT22;70512;42.122;24.732;2024-01-25T07:37:02;12.30;57.00
79760;DHT22;70512;42.122;24.732;2024-01-25T07:39:30;12.90;54.90
79760;DHT22;70512;42.122;24.732;2024-01-25T07:41:58;13.00;54.60
79760;DHT22;70512;42.122;24.732;2024-01-25T07:44:26;13.30;52.80
79760;DHT22;70512;42.122;24.732;2024-01-25T07:46:53;13.20;51.50
79760;DHT22;70512;42.122;24.732;2024-01-25T07:49:21;12.60;53.20
79760;DHT22;70512;42.122;24.732;2024-01-25T07:51:48;12.10;54.50
79760;DHT22;70512;42.122;24.732;2024-01-25T07:54:16;12.00;55.40
79760;DHT22;70512;42.122;24.732;2024-01-25T07:56:44;12.20;55.50
79760;DHT22;70512;42.122;24.732;2024-01-25T07:59:12;12.80;54.00
79760;DHT22;70512;42.122;24.732;2024-01-25T08:01:39;13.70;51.50
79760;DHT22;70512;42.122;24.732;2024-01-25T08:04:07;14.80;48.10
79760;DHT22;70512;42.122;24.732;2024-01-25T08:06:34;14.90;47.10
79760;DHT22;70512;42.122;24.732;2024-01-25T08:09:02;14.90;47.20
79760;DHT22;70512;42.122;24.732;2024-01-25T08:11:30;15.20;46.00
79760;DHT22;70512;42.122;24.732;2024-01-25T08:13:57;15.80;44.40
79760;DHT22;70512;42.122;24.732;2024-01-25T08:16:26;16.20;43.40
79760;DHT22;70512;42.122;24.732;2024-01-25T08:18:54;16.00;42.90
79760;DHT22;70512;42.122;24.732;2024-01-25T08:21:21;15.70;43.50
79760;DHT22;70512;42.122;24.732;2024-01-25T08:23:49;16.20;42.90
79760;DHT22;70512;42.122;24.732;2024-01-25T08:26:17;17.30;41.10
79760;DHT22;70512;42.122;24.732;2024-01-25T08:28:45;17.60;39.10
79760;DHT22;70512;42.122;24.732;2024-01-25T08:31:13;16.90;40.50
79760;DHT22;70512;42.122;24.732;2024-01-25T08:33:41;16.90;41.20
79760;DHT22;70512;42.122;24.732;2024-01-25T08:36:11;16.80;40.90
79760;DHT22;70512;42.122;24.732;2024-01-25T08:38:38;16.70;41.20
79760;DHT22;70512;42.122;24.732;2024-01-25T08:41:06;16.70;40.70
79760;DHT22;70512;42.122;24.732;2024-01-25T08:43:34;15.90;42.60
79760;DHT22;70512;42.122;24.732;2024-01-25T08:46:01;15.40;44.40
79760;DHT22;70512;42.122;24.732;2024-01-25T08:48:30;15.70;44.60
79760;DHT22;70512;42.122;24.732;2024-01-25T08:50:57;16.00;43.50
79760;DHT22;70512;42.122;24.732;2024-01-25T08:53:25;16.20;42.90
79760;DHT22;70512;42.122;24.732;2024-01-25T08:55:55;16.20;42.80
79760;DHT22;70512;42.122;24.732;2024-01-25T08:58:23;16.70;42.40
79760;DHT22;70512;42.122;24.732;2024-01-25T09:00:51;17.20;40.70
79760;DHT22;70512;42.122;24.732;2024-01-25T09:03:19;17.40;39.60
79760;DHT22;70512;42.122;24.732;2024-01-25T09:05:47;17.20;39.90
79760;DHT22;70512;42.122;24.732;2024-01-25T09:08:15;16.80;41.00
79760;DHT22;70512;42.122;24.732;2024-01-25T09:10:43;15.70;42.90
79760;DHT22;70512;42.122;24.732;2024-01-25T09:13:11;15.00;44.90
79760;DHT22;70512;42.122;24.732;2024-01-25T09:15:38;14.90;44.80
79760;DHT22;70512;42.122;24.732;2024-01-25T09:18:06;14.90;45.20
79760;DHT22;70512;42.122;24.732;2024-01-25T09:20:33;15.20;45.10
79760;DHT22;70512;42.122;24.732;2024-01-25T09:23:01;15.20;45.30
79760;DHT22;70512;42.122;24.732;2024-01-25T09:25:29;14.50;46.20
79760;DHT22;70512;42.122;24.732;2024-01-25T09:27:57;14.30;47.70
79760;DHT22;70512;42.122;24.732;2024-01-25T09:30:24;14.70;46.00
79760;DHT22;70512;42.122;24.732;2024-01-25T09:32:53;14.30;46.90
79760;DHT22;70512;42.122;24.732;2024-01-25T09:35:21;14.00;47.80
79760;DHT22;70512;42.122;24.732;2024-01-25T09:37:48;13.80;48.60
79760;DHT22;70512;42.122;24.732;2024-01-25T09:40:18;14.00;48.40
79760;DHT22;70512;42.122;24.732;2024-01-25T09:42:49;14.90;45.60
79760;DHT22;70512;42.122;24.732;2024-01-25T09:45:19;14.50;46.00
79760;DHT22;70512;42.122;24.732;2024-01-25T09:47:47;14.50;46.60
79760;DHT22;70512;42.122;24.732;2024-01-25T09:50:15;14.40;45.60
79760;DHT22;70512;42.122;24.732;2024-01-25T09:52:44;14.20;46.90
79760;DHT22;70512;42.122;24.732;2024-01-25T09:55:12;14.20;46.80
79760;DHT22;70512;42.122;24.732;2024-01-25T09:57:46;13.90;47.50
79760;DHT22;70512;42.122;24.732;2024-01-25T10:00:16;13.60;48.40
79760;DHT22;70512;42.122;24.732;2024-01-25T10:02:44;13.50;49.20
79760;DHT22;70512;42.122;24.732;2024-01-25T10:05:12;13.40;49.40
79760;DHT22;70512;42.122;24.732;2024-01-25T10:07:40;13.40;49.40
79760;DHT22;70512;42.122;24.732;2024-01-25T10:10:09;13.30;48.90
79760;DHT22;70512;42.122;24.732;2024-01-25T10:12:38;13.10;49.30
79760;DHT22;70512;42.122;24.732;2024-01-25T10:15:06;13.00;49.80
79760;DHT22;70512;42.122;24.732;2024-01-25T10:17:34;13.20;49.30
79760;DHT22;70512;42.122;24.732;2024-01-25T10:20:07;13.60;48.60
79760;DHT22;70512;42.122;24.732;2024-01-25T10:22:37;14.00;47.30
79760;DHT22;70512;42.122;24.732;2024-01-25T10:25:13;14.40;45.50
79760;DHT22;70512;42.122;24.732;2024-01-25T10:27:41;14.70;45.30
79760;DHT22;70512;42.122;24.732;2024-01-25T10:30:10;14.20;46.00
79760;DHT22;70512;42.122;24.732;2024-01-25T10:32:39;13.70;47.30
79760;DHT22;70512;42.122;24.732;2024-01-25T10:35:08;13.40;48.40
79760;DHT22;70512;42.122;24.732;2024-01-25T10:37:37;13.50;49.00
79760;DHT22;70512;42.122;24.732;2024-01-25T10:40:09;13.80;48.10
79760;DHT22;70512;42.122;24.732;2024-01-25T10:42:37;13.70;47.40
79760;DHT22;70512;42.122;24.732;2024-01-25T10:45:06;13.90;46.90
79760;DHT22;70512;42.122;24.732;2024-01-25T10:47:35;14.10;46.60
79760;DHT22;70512;42.122;24.732;2024-01-25T10:50:07;14.60;45.10
79760;DHT22;70512;42.122;24.732;2024-01-25T10:52:37;14.30;45.10
79760;DHT22;70512;42.122;24.732;2024-01-25T10:55:06;14.10;45.80
79760;DHT22;70512;42.122;24.732;2024-01-25T10:57:38;13.60;46.50
79760;DHT22;70512;42.122;24.732;2024-01-25T11:00:14;13.50;47.30
79760;DHT22;70512;42.122;24.732;2024-01-25T11:02:40;13.30;47.70
79760;DHT22;70512;42.122;24.732;2024-01-25T11:05:14;13.30;47.80
79760;DHT22;70512;42.122;24.732;2024-01-25T11:07:51;13.30;47.80
79760;DHT22;70512;42.122;24.732;2024-01-25T11:10:26;13.30;48.00
79760;DHT22;70512;42.122;24.732;2024-01-25T11:12:59;13.10;47.50
79760;DHT22;70512;42.122;24.732;2024-01-25T11:15:37;13.00;47.60
79760;DHT22;70512;42.122;24.732;2024-01-25T11:18:07;13.10;47.90
79760;DHT22;70512;42.122;24.732;2024-01-25T11:20:36;13.20;47.70
79760;DHT22;70512;42.122;24.732;2024-01-25T11:23:05;13.00;47.60
79760;DHT22;70512;42.122;24.732;2024-01-25T11:25:37;12.90;48.30
79760;DHT22;70512;42.122;24.732;2024-01-25T11:28:05;12.90;48.70
79760;DHT22;70512;42.122;24.732;2024-01-25T11:30:35;13.00;48.50
79760;DHT22;70512;42.122;24.732;2024-01-25T11:33:07;13.10;48.50
79760;DHT22;70512;42.122;24.732;2024-01-25T11:35:36;13.10;47.70
79760;DHT22;70512;42.122;24.732;2024-01-25T11:38:04;13.20;48.30
79760;DHT22;70512;42.122;24.732;2024-01-25T11:40:32;13.30;48.00
79760;DHT22;70512;42.122;24.732;2024-01-25T11:43:01;13.40;48.00
79760;DHT22;70512;42.122;24.732;2024-01-25T11:45:29;13.70;47.90
79760;DHT22;70512;42.122;24.732;2024-01-25T11:47:57;14.40;46.90
79760;DHT22;70512;42.122;24.732;2024-01-25T11:50:25;14.40;46.00
79760;DHT22;70512;42.122;24.732;2024-01-25T11:52:56;14.50;46.00
79760;DHT22;70512;42.122;24.732;2024-01-25T11:55:26;14.50;46.90
79760;DHT22;70512;42.122;24.732;2024-01-25T11:57:55;15.50;43.40
79760;DHT22;70512;42.122;24.732;2024-01-25T12:00:23;16.60;40.50
79760;DHT22;70512;42.122;24.732;2024-01-25T12:02:51;17.10;39.50
79760;DHT22;70512;42.122;24.732;2024-01-25T12:05:20;16.90;39.60
79760;DHT22;70512;42.122;24.732;2024-01-25T12:07:48;16.10;41.10
79760;DHT22;70512;42.122;24.732;2024-01-25T12:10:16;15.90;42.20
79760;DHT22;70512;42.122;24.732;2024-01-25T12:12:48;15.60;43.00
79760;DHT22;70512;42.122;24.732;2024-01-25T12:15:16;14.90;43.90
79760;DHT22;70512;42.122;24.732;2024-01-25T12:17:44;14.30;45.90
79760;DHT22;70512;42.122;24.732;2024-01-25T12:20:12;14.10;46.20
79760;DHT22;70512;42.122;24.732;2024-01-25T12:22:39;13.70;46.60
79760;DHT22;70512;42.122;24.732;2024-01-25T12:25:08;13.50;48.10
79760;DHT22;70512;42.122;24.732;2024-01-25T12:27:40;13.20;48.60
79760;DHT22;70512;42.122;24.732;2024-01-25T12:30:12;13.10;48.40
79760;DHT22;70512;42.122;24.732;2024-01-25T12:32:40;12.90;48.70
79760;DHT22;70512;42.122;24.732;2024-01-25T12:35:08;12.80;49.10
79760;DHT22;70512;42.122;24.732;2024-01-25T12:37:36;12.70;49.30
79760;DHT22;70512;42.122;24.732;2024-01-25T12:40:04;12.80;49.30
79760;DHT22;70512;42.122;24.732;2024-01-25T12:42:32;12.80;49.60
79760;DHT22;70512;42.122;24.732;2024-01-25T12:45:00;12.80;49.70
79760;DHT22;70512;42.122;24.732;2024-01-25T12:47:28;12.80;49.80
79760;DHT22;70512;42.122;24.732;2024-01-25T12:49:56;12.70;49.40
79760;DHT22;70512;42.122;24.732;2024-01-25T12:52:23;12.70;50.20
79760;DHT22;70512;42.122;24.732;2024-01-25T12:54:51;12.70;50.60
79760;DHT22;70512;42.122;24.732;2024-01-25T12:57:19;12.70;50.70
79760;DHT22;70512;42.122;24.732;2024-01-25T12:59:47;12.70;50.20
79760;DHT22;70512;42.122;24.732;2024-01-25T13:02:14;12.60;50.20
79760;DHT22;70512;42.122;24.732;2024-01-25T13:04:42;12.70;49.70
79760;DHT22;70512;42.122;24.732;2024-01-25T13:07:10;12.60;49.00
79760;DHT22;70512;42.122;24.732;2024-01-25T13:09:37;12.60;48.30
79760;DHT22;70512;42.122;24.732;2024-01-25T13:12:05;12.60;47.80
79760;DHT22;70512;42.122;24.732;2024-01-25T13:14:33;12.50;47.10
79760;DHT22;70512;42.122;24.732;2024-01-25T13:17:01;12.50;47.20
79760;DHT22;70512;42.122;24.732;2024-01-25T13:19:28;12.40;47.50
79760;DHT22;70512;42.122;24.732;2024-01-25T13:21:56;12.50;47.60
79760;DHT22;70512;42.122;24.732;2024-01-25T13:24:24;12.40;47.50
79760;DHT22;70512;42.122;24.732;2024-01-25T13:26:52;12.40;47.60
79760;DHT22;70512;42.122;24.732;2024-01-25T13:29:19;12.50;47.30
79760;DHT22;70512;42.122;24.732;2024-01-25T13:31:47;12.40;47.30
79760;DHT22;70512;42.122;24.732;2024-01-25T13:34:15;12.40;47.30
79760;DHT22;70512;42.122;24.732;2024-01-25T13:36:42;12.40;47.80
79760;DHT22;70512;42.122;24.732;2024-01-25T13:39:10;12.40;47.50
79760;DHT22;70512;42.122;24.732;2024-01-25T13:41:39;12.40;47.70
79760;DHT22;70512;42.122;24.732;2024-01-25T13:44:07;12.30;47.90
79760;DHT22;70512;42.122;24.732;2024-01-25T13:46:34;12.30;48.20
79760;DHT22;70512;42.122;24.732;2024-01-25T13:49:02;12.30;49.00
79760;DHT22;70512;42.122;24.732;2024-01-25T13:51:30;12.20;49.70
79760;DHT22;70512;42.122;24.732;2024-01-25T13:53:58;12.10;50.40
79760;DHT22;70512;42.122;24.732;2024-01-25T13:56:26;12.10;50.90
79760;DHT22;70512;42.122;24.732;2024-01-25T13:58:53;12.00;51.40
79760;DHT22;70512;42.122;24.732;2024-01-25T14:01:21;11.90;52.30
79760;DHT22;70512;42.122;24.732;2024-01-25T14:03:49;11.90;53.20
79760;DHT22;70512;42.122;24.732;2024-01-25T14:06:17;11.90;53.40
79760;DHT22;70512;42.122;24.732;2024-01-25T14:08:45;11.80;53.20
79760;DHT22;70512;42.122;24.732;2024-01-25T14:11:13;11.80;52.90
79760;DHT22;70512;42.122;24.732;2024-01-25T14:13:41;11.80;53.50
79760;DHT22;70512;42.122;24.732;2024-01-25T14:16:09;11.90;53.40
79760;DHT22;70512;42.122;24.732;2024-01-25T14:18:40;11.80;53.80
79760;DHT22;70512;42.122;24.732;2024-01-25T14:21:07;11.70;53.30
79760;DHT22;70512;42.122;24.732;2024-01-25T14:23:35;11.80;52.80
79760;DHT22;70512;42.122;24.732;2024-01-25T14:26:03;11.70;52.30
79760;DHT22;70512;42.122;24.732;2024-01-25T14:28:31;11.70;51.60
79760;DHT22;70512;42.122;24.732;2024-01-25T14:30:59;11.70;52.00
79760;DHT22;70512;42.122;24.732;2024-01-25T14:33:26;11.70;52.20
79760;DHT22;70512;42.122;24.732;2024-01-25T14:35:54;11.70;52.20
79760;DHT22;70512;42.122;24.732;2024-01-25T14:38:22;11.60;52.50
79760;DHT22;70512;42.122;24.732;2024-01-25T14:40:50;11.50;53.20
79760;DHT22;70512;42.122;24.732;2024-01-25T14:43:17;11.40;53.40
79760;DHT22;70512;42.122;24.732;2024-01-25T14:45:45;11.30;53.60
79760;DHT22;70512;42.122;24.732;2024-01-25T14:48:13;11.20;53.90
79760;DHT22;70512;42.122;24.732;2024-01-25T14:50:40;11.20;53.70
79760;DHT22;70512;42.122;24.732;2024-01-25T14:53:08;11.20;54.00
79760;DHT22;70512;42.122;24.732;2024-01-25T14:55:36;11.20;54.00
79760;DHT22;70512;42.122;24.732;2024-01-25T14:58:04;11.20;53.50
79760;DHT22;70512;42.122;24.732;2024-01-25T15:00:31;11.20;53.20
79760;DHT22;70512;42.122;24.732;2024-01-25T15:02:59;11.10;52.80
79760;DHT22;70512;42.122;24.732;2024-01-25T15:05:27;11.10;53.20
79760;DHT22;70512;42.122;24.732;2024-01-25T15:07:54;11.10;53.20
79760;DHT22;70512;42.122;24.732;2024-01-25T15:10:23;11.10;53.10
79760;DHT22;70512;42.122;24.732;2024-01-25T15:12:50;11.10;53.20
79760;DHT22;70512;42.122;24.732;2024-01-25T15:15:20;11.10;53.40
79760;DHT22;70512;42.122;24.732;2024-01-25T15:17:47;11.10;53.20
79760;DHT22;70512;42.122;24.732;2024-01-25T15:20:15;11.10;53.00
79760;DHT22;70512;42.122;24.732;2024-01-25T15:22:43;11.10;53.20
79760;DHT22;70512;42.122;24.732;2024-01-25T15:25:10;11.00;53.80